sensor_id;sensor_type;location;lat;lon;timestamp;P1;durP1;ratioP1;P2;durP2;ratioP2
23496;SDS011;11925;48.122;11.560;2022-11-23T00:01:16;7.05;;;1.58;;
23496;SDS011;11925;48.122;11.560;2022-11-23T00:03:46;4.07;;;1.70;;
23496;SDS011;11925;48.122;11.560;2022-11-23T00:06:15;2.92;;;1.65;;
23496;SDS011;11925;48.122;11.560;2022-11-23T00:08:45;3.88;;;1.25;;
23496;SDS011;11925;48.122;11.560;2022-11-23T00:11:14;3.47;;;1.60;;
23496;SDS011;11925;48.122;11.560;2022-11-23T00:13:43;3.00;;;1.35;;
23496;SDS011;11925;48.122;11.560;2022-11-23T00:16:12;4.00;;;1.50;;
23496;SDS011;11925;48.122;11.560;2022-11-23T00:18:41;4.07;;;1.67;;
23496;SDS011;11925;48.122;11.560;2022-11-23T00:21:11;3.80;;;1.42;;
23496;SDS011;11925;48.122;11.560;2022-11-23T00:23:40;3.10;;;1.50;;
23496;SDS011;11925;48.122;11.560;2022-11-23T00:26:10;2.67;;;1.50;;
23496;SDS011;11925;48.122;11.560;2022-11-23T00:28:39;4.45;;;1.50;;
23496;SDS011;11925;48.122;11.560;2022-11-23T00:31:09;3.17;;;1.40;;
23496;SDS011;11925;48.122;11.560;2022-11-23T00:33:38;4.20;;;1.50;;
23496;SDS011;11925;48.122;11.560;2022-11-23T00:36:08;3.78;;;1.45;;
23496;SDS011;11925;48.122;11.560;2022-11-23T00:38:38;3.00;;;1.50;;
23496;SDS011;11925;48.122;11.560;2022-11-23T00:41:07;3.10;;;1.25;;
23496;SDS011;11925;48.122;11.560;2022-11-23T00:43:37;2.85;;;1.40;;
23496;SDS011;11925;48.122;11.560;2022-11-23T00:46:07;4.68;;;1.52;;
23496;SDS011;11925;48.122;11.560;2022-11-23T00:48:36;3.33;;;1.52;;
23496;SDS011;11925;48.122;11.560;2022-11-23T00:51:05;4.32;;;1.50;;
23496;SDS011;11925;48.122;11.560;2022-11-23T00:53:34;1.75;;;1.20;;
23496;SDS011;11925;48.122;11.560;2022-11-23T00:56:03;3.40;;;1.50;;
23496;SDS011;11925;48.122;11.560;2022-11-23T00:58:32;5.15;;;1.95;;
23496;SDS011;11925;48.122;11.560;2022-11-23T01:01:06;2.75;;;1.38;;
23496;SDS011;11925;48.122;11.560;2022-11-23T01:03:36;3.78;;;1.83;;
23496;SDS011;11925;48.122;11.560;2022-11-23T01:06:06;3.80;;;1.50;;
23496;SDS011;11925;48.122;11.560;2022-11-23T01:08:35;4.65;;;1.92;;
23496;SDS011;11925;48.122;11.560;2022-11-23T01:11:05;2.75;;;1.48;;
23496;SDS011;11925;48.122;11.560;2022-11-23T01:13:35;4.63;;;1.20;;
23496;SDS011;11925;48.122;11.560;2022-11-23T01:16:05;3.08;;;1.30;;
23496;SDS011;11925;48.122;11.560;2022-11-23T01:18:34;5.35;;;1.63;;
23496;SDS011;11925;48.122;11.560;2022-11-23T01:21:03;3.90;;;1.20;;
23496;SDS011;11925;48.122;11.560;2022-11-23T01:23:32;2.47;;;1.50;;
23496;SDS011;11925;48.122;11.560;2022-11-23T01:26:05;3.70;;;1.60;;
23496;SDS011;11925;48.122;11.560;2022-11-23T01:28:34;3.95;;;1.38;;
23496;SDS011;11925;48.122;11.560;2022-11-23T01:31:04;3.38;;;1.40;;
23496;SDS011;11925;48.122;11.560;2022-11-23T01:33:34;4.75;;;1.58;;
23496;SDS011;11925;48.122;11.560;2022-11-23T01:36:07;3.00;;;1.23;;
23496;SDS011;11925;48.122;11.560;2022-11-23T01:38:36;2.88;;;1.48;;
23496;SDS011;11925;48.122;11.560;2022-11-23T01:41:05;4.60;;;1.15;;
23496;SDS011;11925;48.122;11.560;2022-11-23T01:43:34;4.63;;;1.40;;
23496;SDS011;11925;48.122;11.560;2022-11-23T01:46:02;3.67;;;1.27;;
23496;SDS011;11925;48.122;11.560;2022-11-23T01:48:32;2.15;;;1.00;;
23496;SDS011;11925;48.122;11.560;2022-11-23T01:51:04;2.92;;;1.10;;
23496;SDS011;11925;48.122;11.560;2022-11-23T01:53:34;4.43;;;1.73;;
23496;SDS011;11925;48.122;11.560;2022-11-23T01:56:04;2.95;;;1.25;;
23496;SDS011;11925;48.122;11.560;2022-11-23T01:58:34;2.17;;;0.98;;
23496;SDS011;11925;48.122;11.560;2022-11-23T02:01:04;2.88;;;1.25;;
23496;SDS011;11925;48.122;11.560;2022-11-23T02:03:33;3.63;;;1.40;;
23496;SDS011;11925;48.122;11.560;2022-11-23T02:06:08;2.30;;;1.30;;
23496;SDS011;11925;48.122;11.560;2022-11-23T02:08:39;3.33;;;1.20;;
23496;SDS011;11925;48.122;11.560;2022-11-23T02:11:08;2.67;;;1.15;;
23496;SDS011;11925;48.122;11.560;2022-11-23T02:13:39;3.80;;;1.20;;
23496;SDS011;11925;48.122;11.560;2022-11-23T02:16:08;3.78;;;1.25;;
23496;SDS011;11925;48.122;11.560;2022-11-23T02:18:38;3.17;;;1.20;;
23496;SDS011;11925;48.122;11.560;2022-11-23T02:21:10;3.33;;;1.48;;
23496;SDS011;11925;48.122;11.560;2022-11-23T02:23:46;3.83;;;1.15;;
23496;SDS011;11925;48.122;11.560;2022-11-23T02:26:19;2.65;;;1.23;;
23496;SDS011;11925;48.122;11.560;2022-11-23T02:28:49;4.82;;;1.33;;
23496;SDS011;11925;48.122;11.560;2022-11-23T02:31:21;2.63;;;1.50;;
23496;SDS011;11925;48.122;11.560;2022-11-23T02:33:51;5.43;;;1.70;;
23496;SDS011;11925;48.122;11.560;2022-11-23T02:36:25;3.38;;;1.60;;
23496;SDS011;11925;48.122;11.560;2022-11-23T02:38:57;3.13;;;1.80;;
23496;SDS011;11925;48.122;11.560;2022-11-23T02:41:28;5.18;;;1.60;;
23496;SDS011;11925;48.122;11.560;2022-11-23T02:44:01;3.47;;;1.70;;
23496;SDS011;11925;48.122;11.560;2022-11-23T02:46:31;3.63;;;1.52;;
23496;SDS011;11925;48.122;11.560;2022-11-23T02:49:00;2.97;;;1.45;;
23496;SDS011;11925;48.122;11.560;2022-11-23T02:51:29;2.40;;;1.52;;
23496;SDS011;11925;48.122;11.560;2022-11-23T02:53:59;4.77;;;1.37;;
23496;SDS011;11925;48.122;11.560;2022-11-23T02:56:29;4.55;;;1.45;;
23496;SDS011;11925;48.122;11.560;2022-11-23T02:58:58;4.63;;;1.45;;
23496;SDS011;11925;48.122;11.560;2022-11-23T03:01:28;2.95;;;1.50;;
23496;SDS011;11925;48.122;11.560;2022-11-23T03:03:56;4.05;;;1.85;;
23496;SDS011;11925;48.122;11.560;2022-11-23T03:06:27;3.80;;;1.63;;
23496;SDS011;11925;48.122;11.560;2022-11-23T03:08:56;3.30;;;1.50;;
23496;SDS011;11925;48.122;11.560;2022-11-23T03:11:25;3.67;;;1.88;;
23496;SDS011;11925;48.122;11.560;2022-11-23T03:13:55;2.97;;;1.65;;
23496;SDS011;11925;48.122;11.560;2022-11-23T03:18:54;1.95;;;1.30;;
23496;SDS011;11925;48.122;11.560;2022-11-23T03:21:23;3.58;;;1.52;;
23496;SDS011;11925;48.122;11.560;2022-11-23T03:23:52;2.42;;;1.60;;
23496;SDS011;11925;48.122;11.560;2022-11-23T03:26:21;3.67;;;1.70;;
23496;SDS011;11925;48.122;11.560;2022-11-23T03:29:01;3.97;;;1.75;;
23496;SDS011;11925;48.122;11.560;2022-11-23T03:31:29;2.40;;;1.30;;
23496;SDS011;11925;48.122;11.560;2022-11-23T03:33:59;3.53;;;1.95;;
23496;SDS011;11925;48.122;11.560;2022-11-23T03:36:29;2.53;;;1.55;;
23496;SDS011;11925;48.122;11.560;2022-11-23T03:38:58;2.20;;;1.40;;
23496;SDS011;11925;48.122;11.560;2022-11-23T03:42:05;4.65;;;1.63;;
23496;SDS011;11925;48.122;11.560;2022-11-23T03:44:36;3.47;;;1.60;;
23496;SDS011;11925;48.122;11.560;2022-11-23T03:47:05;3.47;;;1.58;;
23496;SDS011;11925;48.122;11.560;2022-11-23T03:49:34;3.75;;;1.70;;
23496;SDS011;11925;48.122;11.560;2022-11-23T03:52:03;3.35;;;1.63;;
23496;SDS011;11925;48.122;11.560;2022-11-23T03:54:32;3.53;;;1.63;;
23496;SDS011;11925;48.122;11.560;2022-11-23T03:57:02;2.20;;;1.40;;
23496;SDS011;11925;48.122;11.560;2022-11-23T03:59:31;3.13;;;1.48;;
23496;SDS011;11925;48.122;11.560;2022-11-23T04:02:01;3.30;;;1.67;;
23496;SDS011;11925;48.122;11.560;2022-11-23T04:04:35;2.13;;;1.25;;
23496;SDS011;11925;48.122;11.560;2022-11-23T04:07:26;3.35;;;1.75;;
23496;SDS011;11925;48.122;11.560;2022-11-23T04:09:55;3.25;;;1.60;;
23496;SDS011;11925;48.122;11.560;2022-11-23T04:12:35;1.80;;;1.02;;
23496;SDS011;11925;48.122;11.560;2022-11-23T04:15:06;2.95;;;1.38;;
23496;SDS011;11925;48.122;11.560;2022-11-23T04:17:36;2.90;;;1.52;;
23496;SDS011;11925;48.122;11.560;2022-11-23T04:20:05;2.90;;;1.70;;
23496;SDS011;11925;48.122;11.560;2022-11-23T04:22:35;5.95;;;2.30;;
23496;SDS011;11925;48.122;11.560;2022-11-23T04:25:04;4.85;;;2.55;;
23496;SDS011;11925;48.122;11.560;2022-11-23T04:27:33;5.97;;;2.50;;
23496;SDS011;11925;48.122;11.560;2022-11-23T04:30:02;4.25;;;2.42;;
23496;SDS011;11925;48.122;11.560;2022-11-23T04:32:31;4.55;;;1.70;;
23496;SDS011;11925;48.122;11.560;2022-11-23T04:35:02;3.33;;;2.03;;
23496;SDS011;11925;48.122;11.560;2022-11-23T04:37:32;2.78;;;1.75;;
23496;SDS011;11925;48.122;11.560;2022-11-23T04:40:01;5.05;;;1.95;;
23496;SDS011;11925;48.122;11.560;2022-11-23T04:42:38;3.33;;;1.63;;
23496;SDS011;11925;48.122;11.560;2022-11-23T04:45:07;3.25;;;1.73;;
23496;SDS011;11925;48.122;11.560;2022-11-23T04:47:36;2.65;;;1.70;;
23496;SDS011;11925;48.122;11.560;2022-11-23T04:50:11;2.42;;;1.40;;
23496;SDS011;11925;48.122;11.560;2022-11-23T04:52:44;4.53;;;1.70;;
23496;SDS011;11925;48.122;11.560;2022-11-23T04:55:18;2.08;;;1.20;;
23496;SDS011;11925;48.122;11.560;2022-11-23T04:57:54;2.28;;;1.30;;
23496;SDS011;11925;48.122;11.560;2022-11-23T05:00:27;3.28;;;1.27;;
23496;SDS011;11925;48.122;11.560;2022-11-23T05:02:57;3.28;;;1.08;;
23496;SDS011;11925;48.122;11.560;2022-11-23T05:05:31;3.28;;;1.33;;
23496;SDS011;11925;48.122;11.560;2022-11-23T05:08:01;2.60;;;1.38;;
23496;SDS011;11925;48.122;11.560;2022-11-23T05:10:50;2.75;;;1.20;;
23496;SDS011;11925;48.122;11.560;2022-11-23T05:13:18;3.55;;;1.33;;
23496;SDS011;11925;48.122;11.560;2022-11-23T05:15:48;3.28;;;1.25;;
23496;SDS011;11925;48.122;11.560;2022-11-23T05:18:23;3.72;;;1.50;;
23496;SDS011;11925;48.122;11.560;2022-11-23T05:20:53;3.10;;;1.52;;
23496;SDS011;11925;48.122;11.560;2022-11-23T05:23:22;3.15;;;1.50;;
23496;SDS011;11925;48.122;11.560;2022-11-23T05:25:52;2.88;;;1.40;;
23496;SDS011;11925;48.122;11.560;2022-11-23T05:28:21;2.67;;;1.38;;
23496;SDS011;11925;48.122;11.560;2022-11-23T05:31:10;4.55;;;1.38;;
23496;SDS011;11925;48.122;11.560;2022-11-23T05:33:41;4.73;;;1.47;;
23496;SDS011;11925;48.122;11.560;2022-11-23T05:36:11;2.20;;;1.20;;
23496;SDS011;11925;48.122;11.560;2022-11-23T05:38:41;1.60;;;1.10;;
23496;SDS011;11925;48.122;11.560;2022-11-23T05:41:16;2.20;;;1.50;;
23496;SDS011;11925;48.122;11.560;2022-11-23T05:46:21;1.88;;;1.10;;
23496;SDS011;11925;48.122;11.560;2022-11-23T05:48:50;4.07;;;1.35;;
23496;SDS011;11925;48.122;11.560;2022-11-23T05:51:20;3.95;;;1.08;;
23496;SDS011;11925;48.122;11.560;2022-11-23T05:53:50;2.17;;;1.30;;
23496;SDS011;11925;48.122;11.560;2022-11-23T05:56:32;3.28;;;1.48;;
23496;SDS011;11925;48.122;11.560;2022-11-23T05:59:11;2.72;;;1.30;;
23496;SDS011;11925;48.122;11.560;2022-11-23T06:01:44;3.72;;;1.40;;
23496;SDS011;11925;48.122;11.560;2022-11-23T06:04:21;1.27;;;0.93;;
23496;SDS011;11925;48.122;11.560;2022-11-23T06:06:51;4.22;;;1.30;;
23496;SDS011;11925;48.122;11.560;2022-11-23T06:09:22;3.08;;;1.80;;
23496;SDS011;11925;48.122;11.560;2022-11-23T06:11:52;3.85;;;1.15;;
23496;SDS011;11925;48.122;11.560;2022-11-23T06:14:21;3.15;;;1.15;;
23496;SDS011;11925;48.122;11.560;2022-11-23T06:16:50;2.95;;;1.00;;
23496;SDS011;11925;48.122;11.560;2022-11-23T06:19:31;3.50;;;1.17;;
23496;SDS011;11925;48.122;11.560;2022-11-23T06:22:02;2.72;;;1.00;;
23496;SDS011;11925;48.122;11.560;2022-11-23T06:24:37;2.45;;;1.30;;
23496;SDS011;11925;48.122;11.560;2022-11-23T06:27:25;2.40;;;1.08;;
23496;SDS011;11925;48.122;11.560;2022-11-23T06:29:54;3.08;;;1.10;;
23496;SDS011;11925;48.122;11.560;2022-11-23T06:32:25;1.70;;;1.10;;
23496;SDS011;11925;48.122;11.560;2022-11-23T06:34:54;1.95;;;1.20;;
23496;SDS011;11925;48.122;11.560;2022-11-23T06:37:30;3.67;;;1.10;;
23496;SDS011;11925;48.122;11.560;2022-11-23T06:39:59;2.63;;;1.35;;
23496;SDS011;11925;48.122;11.560;2022-11-23T06:42:28;2.08;;;1.10;;
23496;SDS011;11925;48.122;11.560;2022-11-23T06:45:09;1.92;;;1.30;;
23496;SDS011;11925;48.122;11.560;2022-11-23T06:47:38;3.15;;;1.10;;
23496;SDS011;11925;48.122;11.560;2022-11-23T06:50:07;3.53;;;1.48;;
23496;SDS011;11925;48.122;11.560;2022-11-23T06:52:38;2.47;;;1.20;;
23496;SDS011;11925;48.122;11.560;2022-11-23T06:55:07;3.95;;;1.35;;
23496;SDS011;11925;48.122;11.560;2022-11-23T06:57:36;4.25;;;1.42;;
23496;SDS011;11925;48.122;11.560;2022-11-23T07:00:07;2.35;;;1.08;;
23496;SDS011;11925;48.122;11.560;2022-11-23T07:02:37;2.77;;;1.20;;
23496;SDS011;11925;48.122;11.560;2022-11-23T07:05:07;2.78;;;1.10;;
23496;SDS011;11925;48.122;11.560;2022-11-23T07:07:38;2.45;;;1.00;;
23496;SDS011;11925;48.122;11.560;2022-11-23T07:10:13;2.92;;;1.15;;
23496;SDS011;11925;48.122;11.560;2022-11-23T07:13:03;3.45;;;1.27;;
23496;SDS011;11925;48.122;11.560;2022-11-23T07:15:33;3.63;;;1.05;;
23496;SDS011;11925;48.122;11.560;2022-11-23T07:18:05;4.22;;;1.75;;
23496;SDS011;11925;48.122;11.560;2022-11-23T07:20:40;2.67;;;0.95;;
23496;SDS011;11925;48.122;11.560;2022-11-23T07:23:10;2.58;;;0.93;;
23496;SDS011;11925;48.122;11.560;2022-11-23T07:25:40;2.72;;;0.93;;
23496;SDS011;11925;48.122;11.560;2022-11-23T07:28:09;2.55;;;1.10;;
23496;SDS011;11925;48.122;11.560;2022-11-23T07:30:40;3.30;;;1.00;;
23496;SDS011;11925;48.122;11.560;2022-11-23T07:33:09;2.40;;;1.13;;
23496;SDS011;11925;48.122;11.560;2022-11-23T07:35:40;3.40;;;0.93;;
23496;SDS011;11925;48.122;11.560;2022-11-23T07:38:10;2.88;;;0.93;;
23496;SDS011;11925;48.122;11.560;2022-11-23T07:40:38;3.97;;;1.02;;
23496;SDS011;11925;48.122;11.560;2022-11-23T07:43:18;2.80;;;1.05;;
23496;SDS011;11925;48.122;11.560;2022-11-23T07:45:48;4.85;;;1.20;;
23496;SDS011;11925;48.122;11.560;2022-11-23T07:48:17;2.35;;;0.82;;
23496;SDS011;11925;48.122;11.560;2022-11-23T07:50:45;3.50;;;1.20;;
23496;SDS011;11925;48.122;11.560;2022-11-23T07:53:15;2.92;;;0.93;;
23496;SDS011;11925;48.122;11.560;2022-11-23T07:55:44;2.45;;;1.00;;
23496;SDS011;11925;48.122;11.560;2022-11-23T07:58:13;3.25;;;1.20;;
23496;SDS011;11925;48.122;11.560;2022-11-23T08:00:41;5.20;;;1.05;;
23496;SDS011;11925;48.122;11.560;2022-11-23T08:03:10;4.88;;;0.98;;
23496;SDS011;11925;48.122;11.560;2022-11-23T08:05:56;3.58;;;1.05;;
23496;SDS011;11925;48.122;11.560;2022-11-23T08:08:26;2.63;;;1.35;;
23496;SDS011;11925;48.122;11.560;2022-11-23T08:10:55;4.22;;;1.20;;
23496;SDS011;11925;48.122;11.560;2022-11-23T08:13:23;3.20;;;1.30;;
23496;SDS011;11925;48.122;11.560;2022-11-23T08:15:52;3.97;;;1.10;;
23496;SDS011;11925;48.122;11.560;2022-11-23T08:18:21;4.82;;;0.98;;
23496;SDS011;11925;48.122;11.560;2022-11-23T08:20:50;4.93;;;1.10;;
23496;SDS011;11925;48.122;11.560;2022-11-23T08:23:19;3.85;;;1.20;;
23496;SDS011;11925;48.122;11.560;2022-11-23T08:25:49;3.17;;;0.93;;
23496;SDS011;11925;48.122;11.560;2022-11-23T08:28:19;3.03;;;1.00;;
23496;SDS011;11925;48.122;11.560;2022-11-23T08:30:48;3.40;;;1.10;;
23496;SDS011;11925;48.122;11.560;2022-11-23T08:33:16;3.60;;;1.15;;
23496;SDS011;11925;48.122;11.560;2022-11-23T08:35:45;4.85;;;1.00;;
23496;SDS011;11925;48.122;11.560;2022-11-23T08:38:14;2.40;;;1.20;;
23496;SDS011;11925;48.122;11.560;2022-11-23T08:40:42;3.78;;;1.00;;
23496;SDS011;11925;48.122;11.560;2022-11-23T08:43:12;3.75;;;1.20;;
23496;SDS011;11925;48.122;11.560;2022-11-23T08:45:41;4.45;;;1.23;;
23496;SDS011;11925;48.122;11.560;2022-11-23T08:48:09;2.83;;;1.08;;
23496;SDS011;11925;48.122;11.560;2022-11-23T08:50:38;3.20;;;1.15;;
23496;SDS011;11925;48.122;11.560;2022-11-23T08:53:07;3.58;;;1.08;;
23496;SDS011;11925;48.122;11.560;2022-11-23T08:55:36;3.50;;;1.30;;
23496;SDS011;11925;48.122;11.560;2022-11-23T08:58:05;4.43;;;1.20;;
23496;SDS011;11925;48.122;11.560;2022-11-23T09:00:40;3.15;;;1.05;;
23496;SDS011;11925;48.122;11.560;2022-11-23T09:03:09;3.45;;;1.00;;
23496;SDS011;11925;48.122;11.560;2022-11-23T09:05:38;4.53;;;0.98;;
23496;SDS011;11925;48.122;11.560;2022-11-23T09:08:06;6.53;;;1.30;;
23496;SDS011;11925;48.122;11.560;2022-11-23T09:10:35;3.00;;;1.05;;
23496;SDS011;11925;48.122;11.560;2022-11-23T09:13:04;3.55;;;1.13;;
23496;SDS011;11925;48.122;11.560;2022-11-23T09:15:33;2.53;;;0.90;;
23496;SDS011;11925;48.122;11.560;2022-11-23T09:18:03;3.42;;;1.00;;
23496;SDS011;11925;48.122;11.560;2022-11-23T09:20:31;2.78;;;1.15;;
23496;SDS011;11925;48.122;11.560;2022-11-23T09:23:00;3.67;;;1.30;;
23496;SDS011;11925;48.122;11.560;2022-11-23T09:25:32;2.53;;;0.90;;
23496;SDS011;11925;48.122;11.560;2022-11-23T09:28:00;3.78;;;0.98;;
23496;SDS011;11925;48.122;11.560;2022-11-23T09:30:29;2.58;;;0.80;;
23496;SDS011;11925;48.122;11.560;2022-11-23T09:32:58;3.25;;;1.10;;
23496;SDS011;11925;48.122;11.560;2022-11-23T09:35:28;3.35;;;1.30;;
23496;SDS011;11925;48.122;11.560;2022-11-23T09:37:57;3.13;;;1.25;;
23496;SDS011;11925;48.122;11.560;2022-11-23T09:40:28;3.83;;;1.38;;
23496;SDS011;11925;48.122;11.560;2022-11-23T09:43:02;1.95;;;1.25;;
23496;SDS011;11925;48.122;11.560;2022-11-23T09:45:33;3.95;;;1.30;;
23496;SDS011;11925;48.122;11.560;2022-11-23T09:48:13;3.85;;;1.50;;
23496;SDS011;11925;48.122;11.560;2022-11-23T09:50:47;5.75;;;2.28;;
23496;SDS011;11925;48.122;11.560;2022-11-23T09:53:19;4.63;;;2.60;;
23496;SDS011;11925;48.122;11.560;2022-11-23T09:55:50;5.32;;;3.08;;
23496;SDS011;11925;48.122;11.560;2022-11-23T09:58:19;6.57;;;3.10;;
23496;SDS011;11925;48.122;11.560;2022-11-23T10:00:49;4.40;;;2.78;;
23496;SDS011;11925;48.122;11.560;2022-11-23T10:03:20;5.28;;;2.95;;
23496;SDS011;11925;48.122;11.560;2022-11-23T10:05:59;5.13;;;2.60;;
23496;SDS011;11925;48.122;11.560;2022-11-23T10:08:32;3.58;;;2.00;;
23496;SDS011;11925;48.122;11.560;2022-11-23T10:11:06;8.15;;;3.22;;
23496;SDS011;11925;48.122;11.560;2022-11-23T10:13:42;12.52;;;5.43;;
23496;SDS011;11925;48.122;11.560;2022-11-23T10:16:16;9.25;;;4.78;;
23496;SDS011;11925;48.122;11.560;2022-11-23T10:18:48;6.90;;;3.10;;
23496;SDS011;11925;48.122;11.560;2022-11-23T10:21:22;5.85;;;2.28;;
23496;SDS011;11925;48.122;11.560;2022-11-23T10:23:56;6.40;;;2.70;;
23496;SDS011;11925;48.122;11.560;2022-11-23T10:26:30;5.90;;;2.17;;
23496;SDS011;11925;48.122;11.560;2022-11-23T10:29:05;3.60;;;2.25;;
23496;SDS011;11925;48.122;11.560;2022-11-23T10:31:34;5.22;;;2.05;;
23496;SDS011;11925;48.122;11.560;2022-11-23T10:34:06;7.13;;;1.90;;
23496;SDS011;11925;48.122;11.560;2022-11-23T10:36:37;5.40;;;2.13;;
23496;SDS011;11925;48.122;11.560;2022-11-23T10:39:10;4.25;;;1.70;;
23496;SDS011;11925;48.122;11.560;2022-11-23T10:41:41;6.22;;;1.85;;
23496;SDS011;11925;48.122;11.560;2022-11-23T10:44:14;6.10;;;1.75;;
23496;SDS011;11925;48.122;11.560;2022-11-23T10:46:46;3.55;;;1.23;;
23496;SDS011;11925;48.122;11.560;2022-11-23T10:49:15;4.25;;;1.40;;
23496;SDS011;11925;48.122;11.560;2022-11-23T10:51:50;1.85;;;0.88;;
23496;SDS011;11925;48.122;11.560;2022-11-23T10:54:23;4.00;;;1.20;;
23496;SDS011;11925;48.122;11.560;2022-11-23T10:56:54;2.42;;;0.95;;
23496;SDS011;11925;48.122;11.560;2022-11-23T10:59:27;4.85;;;1.00;;
23496;SDS011;11925;48.122;11.560;2022-11-23T11:02:16;3.58;;;0.98;;
23496;SDS011;11925;48.122;11.560;2022-11-23T11:04:46;2.30;;;0.70;;
23496;SDS011;11925;48.122;11.560;2022-11-23T11:07:25;4.28;;;0.65;;
23496;SDS011;11925;48.122;11.560;2022-11-23T11:09:55;3.70;;;0.70;;
23496;SDS011;11925;48.122;11.560;2022-11-23T11:12:24;2.97;;;0.70;;
23496;SDS011;11925;48.122;11.560;2022-11-23T11:14:58;2.13;;;0.63;;
23496;SDS011;11925;48.122;11.560;2022-11-23T11:17:37;2.75;;;1.40;;
23496;SDS011;11925;48.122;11.560;2022-11-23T11:23:02;3.90;;;0.70;;
23496;SDS011;11925;48.122;11.560;2022-11-23T11:25:32;1.65;;;0.60;;
23496;SDS011;11925;48.122;11.560;2022-11-23T11:28:02;2.53;;;0.83;;
23496;SDS011;11925;48.122;11.560;2022-11-23T11:30:34;3.35;;;0.80;;
23496;SDS011;11925;48.122;11.560;2022-11-23T11:33:08;3.10;;;0.70;;
23496;SDS011;11925;48.122;11.560;2022-11-23T11:35:39;2.95;;;0.80;;
23496;SDS011;11925;48.122;11.560;2022-11-23T11:38:12;3.13;;;0.70;;
23496;SDS011;11925;48.122;11.560;2022-11-23T11:40:44;2.38;;;0.73;;
23496;SDS011;11925;48.122;11.560;2022-11-23T11:43:15;6.28;;;0.90;;
23496;SDS011;11925;48.122;11.560;2022-11-23T11:45:51;3.63;;;0.90;;
23496;SDS011;11925;48.122;11.560;2022-11-23T11:48:41;1.98;;;0.60;;
23496;SDS011;11925;48.122;11.560;2022-11-23T11:51:12;3.40;;;0.77;;
23496;SDS011;11925;48.122;11.560;2022-11-23T11:53:48;2.45;;;0.90;;
23496;SDS011;11925;48.122;11.560;2022-11-23T11:56:21;3.50;;;0.88;;
23496;SDS011;11925;48.122;11.560;2022-11-23T11:58:53;2.67;;;0.80;;
23496;SDS011;11925;48.122;11.560;2022-11-23T12:01:27;2.45;;;0.90;;
23496;SDS011;11925;48.122;11.560;2022-11-23T12:04:00;5.47;;;0.80;;
23496;SDS011;11925;48.122;11.560;2022-11-23T12:06:32;2.92;;;1.15;;
23496;SDS011;11925;48.122;11.560;2022-11-23T12:09:05;3.30;;;1.15;;
23496;SDS011;11925;48.122;11.560;2022-11-23T12:11:34;3.58;;;0.70;;
23496;SDS011;11925;48.122;11.560;2022-11-23T12:14:03;2.70;;;0.80;;
23496;SDS011;11925;48.122;11.560;2022-11-23T12:16:33;3.25;;;0.90;;
23496;SDS011;11925;48.122;11.560;2022-11-23T12:19:10;2.85;;;0.90;;
23496;SDS011;11925;48.122;11.560;2022-11-23T12:21:52;2.75;;;0.80;;
23496;SDS011;11925;48.122;11.560;2022-11-23T12:24:25;2.35;;;0.63;;
23496;SDS011;11925;48.122;11.560;2022-11-23T12:27:00;3.40;;;0.80;;
23496;SDS011;11925;48.122;11.560;2022-11-23T12:29:38;2.28;;;0.80;;
23496;SDS011;11925;48.122;11.560;2022-11-23T12:32:11;3.25;;;0.90;;
23496;SDS011;11925;48.122;11.560;2022-11-23T12:34:48;2.88;;;0.80;;
23496;SDS011;11925;48.122;11.560;2022-11-23T12:37:27;4.75;;;0.93;;
23496;SDS011;11925;48.122;11.560;2022-11-23T12:42:50;3.30;;;0.85;;
23496;SDS011;11925;48.122;11.560;2022-11-23T12:45:31;1.90;;;0.73;;
23496;SDS011;11925;48.122;11.560;2022-11-23T12:48:07;2.70;;;0.70;;
23496;SDS011;11925;48.122;11.560;2022-11-23T12:50:42;4.57;;;1.00;;
23496;SDS011;11925;48.122;11.560;2022-11-23T12:53:19;2.35;;;0.93;;
23496;SDS011;11925;48.122;11.560;2022-11-23T12:55:55;1.77;;;0.60;;
23496;SDS011;11925;48.122;11.560;2022-11-23T12:58:27;6.70;;;1.00;;
23496;SDS011;11925;48.122;11.560;2022-11-23T13:00:56;2.25;;;0.63;;
23496;SDS011;11925;48.122;11.560;2022-11-23T13:03:36;2.33;;;0.50;;
23496;SDS011;11925;48.122;11.560;2022-11-23T13:06:13;2.33;;;0.70;;
23496;SDS011;11925;48.122;11.560;2022-11-23T13:08:55;2.55;;;0.60;;
23496;SDS011;11925;48.122;11.560;2022-11-23T13:11:33;1.20;;;0.60;;
23496;SDS011;11925;48.122;11.560;2022-11-23T13:14:11;3.00;;;0.80;;
23496;SDS011;11925;48.122;11.560;2022-11-23T13:16:51;2.53;;;0.50;;
23496;SDS011;11925;48.122;11.560;2022-11-23T13:19:39;3.20;;;0.70;;
23496;SDS011;11925;48.122;11.560;2022-11-23T13:22:12;2.95;;;0.93;;
23496;SDS011;11925;48.122;11.560;2022-11-23T13:24:57;3.95;;;0.60;;
23496;SDS011;11925;48.122;11.560;2022-11-23T13:27:33;2.38;;;0.70;;
23496;SDS011;11925;48.122;11.560;2022-11-23T13:30:20;4.15;;;0.57;;
23496;SDS011;11925;48.122;11.560;2022-11-23T13:32:53;3.00;;;0.55;;
23496;SDS011;11925;48.122;11.560;2022-11-23T13:38:17;1.90;;;0.55;;
23496;SDS011;11925;48.122;11.560;2022-11-23T13:40:46;3.30;;;0.60;;
23496;SDS011;11925;48.122;11.560;2022-11-23T13:43:15;3.10;;;0.50;;
23496;SDS011;11925;48.122;11.560;2022-11-23T13:45:46;3.07;;;0.57;;
23496;SDS011;11925;48.122;11.560;2022-11-23T13:48:40;1.27;;;0.50;;
23496;SDS011;11925;48.122;11.560;2022-11-23T13:51:25;2.10;;;0.65;;
23496;SDS011;11925;48.122;11.560;2022-11-23T13:53:56;2.20;;;0.60;;
23496;SDS011;11925;48.122;11.560;2022-11-23T13:56:28;0.88;;;0.60;;
23496;SDS011;11925;48.122;11.560;2022-11-23T13:58:58;3.33;;;0.60;;
23496;SDS011;11925;48.122;11.560;2022-11-23T14:04:19;1.55;;;0.50;;
23496;SDS011;11925;48.122;11.560;2022-11-23T14:06:50;1.80;;;0.40;;
23496;SDS011;11925;48.122;11.560;2022-11-23T14:09:23;2.47;;;0.50;;
23496;SDS011;11925;48.122;11.560;2022-11-23T14:14:49;2.42;;;0.82;;
23496;SDS011;11925;48.122;11.560;2022-11-23T14:20:18;2.00;;;0.70;;
23496;SDS011;11925;48.122;11.560;2022-11-23T14:22:52;1.83;;;0.77;;
23496;SDS011;11925;48.122;11.560;2022-11-23T14:25:27;1.88;;;0.70;;
23496;SDS011;11925;48.122;11.560;2022-11-23T14:28:01;2.28;;;0.60;;
23496;SDS011;11925;48.122;11.560;2022-11-23T14:30:43;1.83;;;0.80;;
23496;SDS011;11925;48.122;11.560;2022-11-23T14:33:17;3.58;;;0.70;;
23496;SDS011;11925;48.122;11.560;2022-11-23T14:35:53;6.22;;;1.10;;
23496;SDS011;11925;48.122;11.560;2022-11-23T14:41:12;20.85;;;12.95;;
23496;SDS011;11925;48.122;11.560;2022-11-23T14:46:15;398.92;;;298.95;;
23496;SDS011;11925;48.122;11.560;2022-11-23T14:48:45;283.20;;;209.45;;
23496;SDS011;11925;48.122;11.560;2022-11-23T14:51:16;238.77;;;163.43;;
23496;SDS011;11925;48.122;11.560;2022-11-23T14:53:46;470.05;;;292.10;;
23496;SDS011;11925;48.122;11.560;2022-11-23T14:56:20;1573.47;;;760.33;;
23496;SDS011;11925;48.122;11.560;2022-11-23T14:58:50;448.67;;;277.52;;
23496;SDS011;11925;48.122;11.560;2022-11-23T15:01:18;440.77;;;248.68;;
23496;SDS011;11925;48.122;11.560;2022-11-23T15:03:55;279.20;;;157.98;;
23496;SDS011;11925;48.122;11.560;2022-11-23T15:06:28;186.30;;;103.28;;
23496;SDS011;11925;48.122;11.560;2022-11-23T15:09:01;217.75;;;118.03;;
23496;SDS011;11925;48.122;11.560;2022-11-23T15:11:31;151.65;;;83.72;;
23496;SDS011;11925;48.122;11.560;2022-11-23T15:14:02;146.18;;;81.13;;
23496;SDS011;11925;48.122;11.560;2022-11-23T15:16:37;148.10;;;79.82;;
23496;SDS011;11925;48.122;11.560;2022-11-23T15:19:18;87.88;;;48.88;;
23496;SDS011;11925;48.122;11.560;2022-11-23T15:21:48;83.38;;;47.28;;
23496;SDS011;11925;48.122;11.560;2022-11-23T15:24:21;78.97;;;41.95;;
23496;SDS011;11925;48.122;11.560;2022-11-23T15:26:50;63.13;;;33.53;;
23496;SDS011;11925;48.122;11.560;2022-11-23T15:29:29;52.92;;;29.17;;